Impacts TAF Board INFO
FOR SITUATIONAL AWARENESS. NOT TO BE USED FOR FLIGHT PLANNING PURPOSES.
IDs:

KMCO - Orlando Intl, FL, US

Issued at 0542 UTC 24 Nov 2017
Updated at 0717 UTC 24 Nov 2017
Potential Impact None Slight Moderate High
Time<<25/08Z 25/09Z 25/10Z 25/11Z 25/12Z 25/13Z 25/14Z 25/15Z 25/16Z 25/17Z 25/18Z 25/19Z 25/20Z
Type PRVL PRVL PRVL PRVL
VIS >6 >6 >6 >6
CIG 7 7 7 7
Cover BKN BKN BKN BKN
FltCat IFR IFR IFR IFR
WX -- -- -- --
WDir 340 340 340 340
WSpd 5 5 5 5
WGst -- -- -- --

Raw TAF
KMCO 240542Z 2406/2512 33006KT P6SM SCT007 SCT015 BKN170
  TEMPO 2406/2408 BKN009
  FM240800 35006KT P6SM BKN007 OVC010
  FM241500 35010KT P6SM BKN015
  FM250000 34005KT P6SM BKN007 BKN012


METAR Board
Radar Display
Forecast Discussion

FOR SITUATIONAL AWARENESS. NOT TO BE USED FOR FLIGHT PLANNING PURPOSES.